Time;durP1;ratioP1;P1;durP2;ratioP2;P2;SDS_P1;SDS_P2;PMS_P1;PMS_P2;Temp;Humidity;BMP_temperature;BMP_pressure;BME280_temperature;BME280_humidity;BME280_pressure;Samples;Min_cycle;Max_cycle;Signal;HPM_P1;HPM_P2
2022/03/18 00:00:20;;;;;;;7.53;4.60;;;;;;;;;;5080602;28;20186;-58
2022/03/18 00:02:47;;;;;;;8.33;4.50;;;;;;;;;;5063684;28;20190;-57
2022/03/18 00:05:13;;;;;;;5.73;4.40;;;;;;;;;;5072776;28;20611;-57
2022/03/18 00:07:44;;;;;;;6.50;4.93;;;;;;;;;;5072993;28;20203;-57
2022/03/18 00:10:11;;;;;;;5.03;3.87;;;;;;;;;;5070313;28;20250;-58
2022/03/18 00:12:38;;;;;;;5.00;4.20;;;;;;;;;;5060341;28;20243;-57
2022/03/18 00:15:11;;;;;;;5.50;4.07;;;;;;;;;;5091408;28;20176;-56
2022/03/18 00:17:38;;;;;;;6.33;4.90;;;;;;;;;;5072427;28;20184;-57
2022/03/18 00:20:05;;;;;;;5.50;4.10;;;;;;;;;;5075638;28;20253;-58
2022/03/18 00:22:31;;;;;;;7.13;4.20;;;;;;;;;;5071279;28;20190;-57
2022/03/18 00:24:58;;;;;;;5.57;4.60;;;;;;;;;;5088817;28;20237;-57
2022/03/18 00:27:26;;;;;;;4.73;4.30;;;;;;;;;;5089234;28;20203;-56
2022/03/18 00:29:52;;;;;;;5.97;4.20;;;;;;;;;;5074101;28;20218;-58
2022/03/18 00:32:19;;;;;;;4.23;3.83;;;;;;;;;;5065736;28;20176;-57
2022/03/18 00:34:45;;;;;;;5.97;4.27;;;;;;;;;;5076597;28;20192;-56
2022/03/18 00:37:12;;;;;;;4.77;3.70;;;;;;;;;;5070954;28;20191;-57
2022/03/18 00:39:38;;;;;;;4.47;4.03;;;;;;;;;;5070821;28;20184;-58
2022/03/18 00:42:05;;;;;;;4.17;3.60;;;;;;;;;;5066252;28;20176;-56
2022/03/18 00:44:31;;;;;;;6.70;4.63;;;;;;;;;;5073319;28;20197;-58
2022/03/18 00:46:58;;;;;;;6.17;4.70;;;;;;;;;;5068369;28;20582;-57
2022/03/18 00:52:13;;;;;;;5.20;3.97;;;;;;;;;;5085974;28;20214;-56
2022/03/18 00:54:42;;;;;;;4.97;4.07;;;;;;;;;;5072119;28;20179;-57
2022/03/18 00:57:09;;;;;;;4.30;3.80;;;;;;;;;;5090334;28;20690;-57
2022/03/18 00:59:35;;;;;;;5.63;4.40;;;;;;;;;;5059053;28;20381;-57
2022/03/18 01:02:02;;;;;;;4.43;4.03;;;;;;;;;;5085978;28;20227;-56
2022/03/18 01:04:31;;;;;;;6.33;4.37;;;;;;;;;;5066454;28;20192;-57
2022/03/18 01:06:58;;;;;;;5.60;3.90;;;;;;;;;;5069058;28;20203;-56
2022/03/18 01:09:25;;;;;;;5.57;3.87;;;;;;;;;;5092484;28;20178;-58
2022/03/18 01:11:52;;;;;;;4.33;3.93;;;;;;;;;;5091771;28;20262;-57
2022/03/18 01:14:21;;;;;;;5.32;4.13;;;;;;;;;;5072196;28;20432;-57
2022/03/18 01:16:48;;;;;;;4.33;3.93;;;;;;;;;;5070006;28;20172;-57
2022/03/18 01:19:14;;;;;;;5.60;3.87;;;;;;;;;;5067065;28;20724;-58
2022/03/18 01:21:42;;;;;;;4.70;3.57;;;;;;;;;;5078649;28;20728;-57
2022/03/18 01:24:10;;;;;;;7.27;4.10;;;;;;;;;;5088932;28;20172;-57
2022/03/18 01:26:37;;;;;;;5.30;4.23;;;;;;;;;;5089492;28;20203;-57
2022/03/18 01:29:04;;;;;;;4.87;4.30;;;;;;;;;;5065713;28;20588;-58
2022/03/18 01:31:30;;;;;;;5.30;3.90;;;;;;;;;;5089798;28;20175;-57
2022/03/18 01:33:57;;;;;;;4.30;3.83;;;;;;;;;;5082607;28;20236;-57
2022/03/18 01:36:23;;;;;;;4.53;3.90;;;;;;;;;;5073714;28;20646;-57
2022/03/18 01:38:49;;;;;;;5.00;3.50;;;;;;;;;;5070484;28;20183;-57
2022/03/18 01:41:16;;;;;;;5.10;4.00;;;;;;;;;;5091156;28;20530;-56
2022/03/18 01:43:45;;;;;;;6.33;4.23;;;;;;;;;;5089188;28;20565;-56
2022/03/18 01:46:11;;;;;;;5.13;4.00;;;;;;;;;;5090459;28;20626;-57
2022/03/18 01:48:37;;;;;;;6.67;3.87;;;;;;;;;;5069309;28;20227;-57
2022/03/18 01:51:04;;;;;;;5.33;3.50;;;;;;;;;;5090695;28;20191;-57
2022/03/18 01:53:30;;;;;;;4.93;3.73;;;;;;;;;;5086229;28;20179;-56
2022/03/18 01:55:57;;;;;;;4.57;3.63;;;;;;;;;;5089673;28;20176;-56
2022/03/18 01:58:23;;;;;;;5.73;3.80;;;;;;;;;;5062258;28;20204;-58
2022/03/18 02:00:50;;;;;;;3.90;3.50;;;;;;;;;;5071750;28;20588;-57
2022/03/18 02:03:17;;;;;;;4.60;3.20;;;;;;;;;;5079397;28;20180;-56
2022/03/18 02:05:44;;;;;;;4.23;3.83;;;;;;;;;;5054312;28;20236;-58
2022/03/18 02:08:11;;;;;;;5.90;3.43;;;;;;;;;;5085237;28;20195;-57
2022/03/18 02:10:38;;;;;;;4.43;3.67;;;;;;;;;;5070355;28;20175;-58
2022/03/18 02:13:04;;;;;;;8.03;4.20;;;;;;;;;;5045810;28;20225;-57
2022/03/18 02:15:31;;;;;;;5.97;3.87;;;;;;;;;;5029727;28;20172;-56
2022/03/18 02:17:57;;;;;;;5.47;3.73;;;;;;;;;;5050090;28;20223;-57
2022/03/18 02:20:23;;;;;;;5.17;3.87;;;;;;;;;;5053139;28;20229;-58
2022/03/18 02:22:50;;;;;;;4.87;4.37;;;;;;;;;;5049064;28;20176;-57
2022/03/18 02:25:16;;;;;;;5.13;3.63;;;;;;;;;;5067190;28;20173;-56
2022/03/18 02:27:53;;;;;;;6.10;3.77;;;;;;;;;;5041099;28;20609;-57
2022/03/18 02:30:20;;;;;;;5.20;4.70;;;;;;;;;;5043842;28;20267;-57
2022/03/18 02:32:46;;;;;;;6.33;4.17;;;;;;;;;;5041796;28;20183;-56
2022/03/18 02:35:13;;;;;;;5.93;3.23;;;;;;;;;;5066400;28;20177;-57
2022/03/18 02:37:40;;;;;;;4.30;3.90;;;;;;;;;;5049165;28;20180;-57
2022/03/18 02:40:06;;;;;;;3.90;3.50;;;;;;;;;;5068581;28;20181;-57
2022/03/18 02:42:34;;;;;;;4.27;3.87;;;;;;;;;;5048799;28;20639;-58
2022/03/18 02:45:02;;;;;;;4.53;3.63;;;;;;;;;;5045523;28;20299;-56
2022/03/18 02:47:28;;;;;;;5.67;3.70;;;;;;;;;;5050878;28;20870;-57
2022/03/18 02:49:54;;;;;;;3.93;3.53;;;;;;;;;;5047797;28;20220;-58
2022/03/18 02:52:21;;;;;;;4.67;3.80;;;;;;;;;;5047319;28;21262;-57
2022/03/18 02:54:47;;;;;;;4.57;3.27;;;;;;;;;;5049940;28;20583;-58
2022/03/18 02:57:14;;;;;;;7.40;4.30;;;;;;;;;;5067510;28;20207;-59
2022/03/18 02:59:40;;;;;;;4.60;3.63;;;;;;;;;;5067411;28;20184;-57
2022/03/18 03:02:07;;;;;;;5.83;3.63;;;;;;;;;;5064544;28;20213;-58
2022/03/18 03:04:33;;;;;;;5.00;3.93;;;;;;;;;;5046129;28;20184;-57
2022/03/18 03:09:43;;;;;;;4.20;3.60;;;;;;;;;;5071845;28;20632;-57
2022/03/18 03:12:10;;;;;;;4.53;3.60;;;;;;;;;;5053487;28;20234;-59
2022/03/18 03:14:36;;;;;;;4.67;4.27;;;;;;;;;;5075473;28;20695;-56
2022/03/18 03:17:03;;;;;;;4.67;3.63;;;;;;;;;;5073833;28;20179;-58
2022/03/18 03:19:30;;;;;;;4.43;3.90;;;;;;;;;;5093512;28;20469;-57
2022/03/18 03:21:56;;;;;;;4.93;3.43;;;;;;;;;;5071453;28;20232;-57
2022/03/18 03:24:22;;;;;;;4.73;3.80;;;;;;;;;;5072064;28;20605;-57
2022/03/18 03:26:49;;;;;;;4.30;3.90;;;;;;;;;;5092314;28;21159;-56
2022/03/18 03:29:15;;;;;;;5.63;3.70;;;;;;;;;;5081482;28;20746;-58
2022/03/18 03:31:41;;;;;;;4.60;4.10;;;;;;;;;;5072997;28;20198;-56
2022/03/18 03:34:08;;;;;;;3.83;3.30;;;;;;;;;;5057282;28;20553;-57
2022/03/18 03:36:34;;;;;;;5.23;3.70;;;;;;;;;;5084246;28;20381;-59
2022/03/18 03:39:00;;;;;;;4.33;3.33;;;;;;;;;;5095844;28;20646;-57
2022/03/18 03:41:26;;;;;;;4.53;3.63;;;;;;;;;;5091016;28;20195;-57
2022/03/18 03:43:53;;;;;;;4.80;3.37;;;;;;;;;;5081867;28;20183;-57
2022/03/18 03:46:19;;;;;;;7.13;3.47;;;;;;;;;;5074919;28;20226;-58
2022/03/18 03:48:45;;;;;;;4.20;3.80;;;;;;;;;;5070335;28;20167;-56
2022/03/18 03:51:12;;;;;;;4.47;3.40;;;;;;;;;;5077611;28;20188;-57
2022/03/18 03:53:38;;;;;;;4.00;3.50;;;;;;;;;;5061677;28;20180;-56
2022/03/18 03:56:04;;;;;;;7.27;3.90;;;;;;;;;;5085041;28;20209;-57
2022/03/18 03:58:30;;;;;;;5.17;3.33;;;;;;;;;;5081406;28;20188;-57
2022/03/18 04:00:56;;;;;;;4.97;3.50;;;;;;;;;;5057164;28;20220;-57
2022/03/18 04:03:22;;;;;;;4.30;3.43;;;;;;;;;;5053457;28;20183;-57
2022/03/18 04:05:48;;;;;;;4.60;3.63;;;;;;;;;;5064649;28;20190;-57
2022/03/18 04:08:15;;;;;;;5.00;3.60;;;;;;;;;;5087429;28;20666;-58
2022/03/18 04:10:42;;;;;;;6.67;3.40;;;;;;;;;;5087893;28;20184;-58
2022/03/18 04:13:08;;;;;;;4.03;3.63;;;;;;;;;;5085898;28;20266;-57
2022/03/18 04:15:35;;;;;;;3.70;3.30;;;;;;;;;;5094632;28;20184;-57
2022/03/18 04:18:01;;;;;;;4.53;3.47;;;;;;;;;;5070767;28;20187;-56
2022/03/18 04:20:30;;;;;;;5.63;3.53;;;;;;;;;;5075889;28;20175;-56
2022/03/18 04:22:56;;;;;;;4.40;3.53;;;;;;;;;;5089784;28;20266;-57
2022/03/18 04:25:22;;;;;;;4.37;3.70;;;;;;;;;;5071135;28;20179;-57
2022/03/18 04:27:49;;;;;;;4.13;3.83;;;;;;;;;;5066468;28;20199;-57
2022/03/18 04:30:15;;;;;;;3.90;3.50;;;;;;;;;;5075571;28;20224;-57
2022/03/18 04:32:41;;;;;;;5.63;3.70;;;;;;;;;;5087723;28;20616;-58
2022/03/18 04:35:08;;;;;;;3.63;3.33;;;;;;;;;;5088258;28;21550;-57
2022/03/18 04:37:34;;;;;;;4.10;3.70;;;;;;;;;;5072330;28;20176;-57
2022/03/18 04:40:00;;;;;;;3.77;3.40;;;;;;;;;;5090314;28;20699;-58
2022/03/18 04:42:26;;;;;;;3.60;3.30;;;;;;;;;;5087768;28;20560;-57
2022/03/18 04:44:53;;;;;;;3.80;3.40;;;;;;;;;;5068855;28;20301;-58
2022/03/18 04:47:19;;;;;;;4.07;3.43;;;;;;;;;;5071385;28;20226;-55
2022/03/18 04:49:45;;;;;;;4.83;3.87;;;;;;;;;;5084223;28;20803;-56
2022/03/18 04:52:12;;;;;;;5.63;3.87;;;;;;;;;;5067876;28;20655;-56
2022/03/18 04:54:38;;;;;;;5.10;3.57;;;;;;;;;;5070048;28;20183;-54
2022/03/18 04:57:20;;;;;;;4.87;3.87;;;;;;;;;;5066500;28;20208;-56
2022/03/18 04:59:47;;;;;;;4.17;3.77;;;;;;;;;;5088168;28;20275;-56
2022/03/18 05:02:15;;;;;;;6.83;4.37;;;;;;;;;;5062777;28;20461;-56
2022/03/18 05:04:43;;;;;;;4.13;3.73;;;;;;;;;;5059772;28;20284;-56
2022/03/18 05:07:11;;;;;;;6.37;4.17;;;;;;;;;;5069396;28;20191;-56
2022/03/18 05:09:38;;;;;;;5.20;3.70;;;;;;;;;;5071251;28;20202;-57
2022/03/18 05:12:06;;;;;;;6.07;3.83;;;;;;;;;;5065073;28;20177;-57
2022/03/18 05:14:34;;;;;;;4.50;3.20;;;;;;;;;;5047495;28;20655;-56
2022/03/18 05:17:00;;;;;;;5.67;3.80;;;;;;;;;;5088635;28;20191;-57
2022/03/18 05:19:27;;;;;;;4.40;3.60;;;;;;;;;;5086113;28;20210;-58
2022/03/18 05:21:53;;;;;;;4.33;3.77;;;;;;;;;;5066328;28;20177;-58
2022/03/18 05:24:19;;;;;;;4.27;3.20;;;;;;;;;;5058294;28;20705;-57
2022/03/18 05:26:45;;;;;;;4.90;4.03;;;;;;;;;;5071490;28;20627;-56
2022/03/18 05:29:13;;;;;;;4.47;3.37;;;;;;;;;;5085355;28;20521;-57
2022/03/18 05:31:39;;;;;;;4.10;3.30;;;;;;;;;;5083009;28;20176;-57
2022/03/18 05:34:06;;;;;;;4.83;3.67;;;;;;;;;;5091099;28;20191;-56
2022/03/18 05:36:32;;;;;;;6.17;3.90;;;;;;;;;;5070337;28;20175;-56
2022/03/18 05:38:59;;;;;;;5.93;3.50;;;;;;;;;;5086404;28;20639;-57
2022/03/18 05:41:25;;;;;;;4.30;3.60;;;;;;;;;;5101836;28;20171;-57
2022/03/18 05:43:51;;;;;;;5.33;3.50;;;;;;;;;;5088577;28;20176;-57
2022/03/18 05:46:17;;;;;;;6.00;4.30;;;;;;;;;;5086272;28;20192;-57
2022/03/18 05:48:44;;;;;;;4.73;3.60;;;;;;;;;;5077993;28;20176;-57
2022/03/18 05:51:10;;;;;;;4.90;3.67;;;;;;;;;;5066331;28;20174;-56
2022/03/18 05:53:36;;;;;;;5.83;4.23;;;;;;;;;;5078243;28;20538;-58
2022/03/18 05:58:48;;;;;;;5.90;4.30;;;;;;;;;;5090470;28;20257;-57
2022/03/18 06:01:15;;;;;;;5.07;3.33;;;;;;;;;;5057970;28;20282;-56
2022/03/18 06:03:41;;;;;;;6.30;4.30;;;;;;;;;;5060195;28;20181;-56
2022/03/18 06:06:08;;;;;;;4.50;3.53;;;;;;;;;;5067124;28;20302;-57
2022/03/18 06:14:07;;;;;;;3.90;3.40;;;;;;;;;;5071550;28;20721;-57
2022/03/18 06:16:34;;;;;;;4.03;3.63;;;;;;;;;;5086474;28;20635;-56
2022/03/18 06:19:01;;;;;;;5.97;4.00;;;;;;;;;;5088331;28;20259;-56
2022/03/18 06:21:27;;;;;;;4.73;4.00;;;;;;;;;;5076170;28;20176;-56
2022/03/18 06:23:53;;;;;;;5.30;3.57;;;;;;;;;;5087027;28;20179;-56
2022/03/18 06:26:20;;;;;;;5.23;3.43;;;;;;;;;;5064123;28;20175;-56
2022/03/18 06:28:46;;;;;;;5.50;3.60;;;;;;;;;;5047851;28;20549;-57
2022/03/18 06:31:12;;;;;;;5.07;3.77;;;;;;;;;;5063674;28;20200;-56
2022/03/18 06:33:43;;;;;;;5.83;4.33;;;;;;;;;;5078042;28;20208;-57
2022/03/18 06:36:09;;;;;;;5.90;3.63;;;;;;;;;;5075632;28;20179;-57
2022/03/18 06:38:36;;;;;;;4.80;3.60;;;;;;;;;;5084812;28;20175;-56
2022/03/18 06:41:02;;;;;;;7.10;3.97;;;;;;;;;;5070017;28;20593;-57
2022/03/18 06:43:28;;;;;;;6.40;4.80;;;;;;;;;;5086738;28;20179;-57
2022/03/18 06:45:55;;;;;;;5.73;3.90;;;;;;;;;;5069403;28;20195;-57
2022/03/18 06:48:22;;;;;;;5.77;3.90;;;;;;;;;;5068385;28;20192;-56
2022/03/18 06:50:49;;;;;;;5.50;3.77;;;;;;;;;;5088368;28;20172;-57
2022/03/18 06:53:15;;;;;;;5.07;3.80;;;;;;;;;;5068891;28;20184;-57
2022/03/18 06:55:41;;;;;;;4.80;3.80;;;;;;;;;;5070090;28;20182;-57
2022/03/18 06:58:07;;;;;;;4.93;3.50;;;;;;;;;;5070035;28;20206;-56
2022/03/18 07:00:35;;;;;;;9.00;4.03;;;;;;;;;;5082058;28;20183;-58
2022/03/18 07:03:01;;;;;;;5.50;3.57;;;;;;;;;;5084499;28;20238;-57
2022/03/18 07:05:27;;;;;;;4.40;4.00;;;;;;;;;;5087445;28;20184;-57
2022/03/18 07:07:54;;;;;;;4.70;3.80;;;;;;;;;;5087442;28;20814;-57
2022/03/18 07:10:20;;;;;;;4.40;3.50;;;;;;;;;;5069892;28;20179;-57
2022/03/18 07:12:47;;;;;;;3.40;2.87;;;;;;;;;;5069601;28;20219;-58
2022/03/18 07:15:13;;;;;;;5.10;3.77;;;;;;;;;;5087819;28;20700;-57
2022/03/18 07:17:55;;;;;;;5.33;3.63;;;;;;;;;;5084862;28;20717;-57
2022/03/18 07:20:25;;;;;;;7.03;3.50;;;;;;;;;;5056618;28;20191;-57
2022/03/18 07:23:10;;;;;;;3.60;3.13;;;;;;;;;;5056116;28;20183;-57
2022/03/18 07:25:41;;;;;;;4.93;3.37;;;;;;;;;;5066537;28;20219;-57
2022/03/18 07:28:08;;;;;;;4.03;3.63;;;;;;;;;;5087825;28;20295;-61
2022/03/18 07:30:35;;;;;;;4.97;3.77;;;;;;;;;;5068072;28;20689;-58
2022/03/18 07:33:01;;;;;;;4.13;3.53;;;;;;;;;;5067807;28;20251;-58
2022/03/18 07:35:31;;;;;;;5.13;3.80;;;;;;;;;;5063025;28;20188;-59
2022/03/18 07:37:58;;;;;;;6.37;4.13;;;;;;;;;;5068841;28;20237;-57
2022/03/18 07:40:25;;;;;;;6.90;4.03;;;;;;;;;;5069523;28;20662;-58
2022/03/18 07:42:56;;;;;;;3.80;3.20;;;;;;;;;;5081635;28;20176;-58
2022/03/18 07:45:22;;;;;;;5.23;3.93;;;;;;;;;;5069857;28;20190;-57
2022/03/18 07:47:50;;;;;;;5.50;4.00;;;;;;;;;;5069857;28;20199;-58
2022/03/18 07:50:20;;;;;;;3.80;3.10;;;;;;;;;;5088074;28;20198;-58
2022/03/18 07:52:48;;;;;;;5.17;3.57;;;;;;;;;;5081025;28;20180;-57
2022/03/18 07:55:18;;;;;;;7.17;4.37;;;;;;;;;;5090982;28;20200;-58
2022/03/18 07:57:44;;;;;;;4.70;3.73;;;;;;;;;;5063992;28;20278;-57
2022/03/18 08:00:11;;;;;;;5.40;3.27;;;;;;;;;;5055974;28;20199;-57
2022/03/18 08:02:38;;;;;;;4.43;3.80;;;;;;;;;;5076064;28;20180;-58
2022/03/18 08:05:05;;;;;;;3.73;3.10;;;;;;;;;;5066931;28;20183;-58
2022/03/18 08:07:33;;;;;;;5.07;3.63;;;;;;;;;;5057903;28;20200;-58
2022/03/18 08:09:59;;;;;;;4.23;3.67;;;;;;;;;;5088871;28;20171;-58
2022/03/18 08:12:25;;;;;;;6.17;4.13;;;;;;;;;;5084950;28;20227;-58
2022/03/18 08:14:51;;;;;;;6.30;3.70;;;;;;;;;;5091047;28;20230;-58
2022/03/18 08:17:18;;;;;;;4.33;3.40;;;;;;;;;;5073037;28;20183;-58
2022/03/18 08:19:44;;;;;;;4.57;3.37;;;;;;;;;;5089191;28;20628;-57
2022/03/18 08:22:10;;;;;;;4.97;3.93;;;;;;;;;;5054554;28;20207;-58
2022/03/18 08:24:36;;;;;;;5.73;3.70;;;;;;;;;;5066168;28;20181;-58
2022/03/18 08:27:03;;;;;;;9.27;4.00;;;;;;;;;;5058158;28;20283;-58
2022/03/18 08:29:29;;;;;;;7.93;3.77;;;;;;;;;;5071228;28;20229;-58
2022/03/18 08:31:55;;;;;;;6.33;3.40;;;;;;;;;;5072799;28;20195;-59
2022/03/18 08:34:21;;;;;;;6.17;3.17;;;;;;;;;;5069856;28;20172;-58
2022/03/18 08:36:48;;;;;;;6.57;3.10;;;;;;;;;;5082452;28;20214;-58
2022/03/18 08:39:14;;;;;;;4.37;3.20;;;;;;;;;;5071089;28;20510;-58
2022/03/18 08:41:40;;;;;;;4.23;3.23;;;;;;;;;;5087722;28;20419;-59
2022/03/18 08:44:06;;;;;;;5.30;2.93;;;;;;;;;;5085284;28;20616;-58
2022/03/18 08:46:34;;;;;;;5.37;3.50;;;;;;;;;;5087043;28;20913;-58
2022/03/18 08:49:00;;;;;;;5.63;3.03;;;;;;;;;;5089071;28;20830;-58
2022/03/18 08:51:26;;;;;;;4.37;3.17;;;;;;;;;;5053619;28;20246;-58
2022/03/18 08:53:53;;;;;;;4.73;2.77;;;;;;;;;;5067205;28;20281;-59
2022/03/18 08:56:19;;;;;;;4.07;2.70;;;;;;;;;;5089961;28;20187;-58
2022/03/18 08:58:45;;;;;;;5.10;2.70;;;;;;;;;;5074361;28;20722;-58
2022/03/18 09:01:11;;;;;;;4.90;3.10;;;;;;;;;;5089967;28;20286;-59
2022/03/18 09:03:38;;;;;;;5.63;2.83;;;;;;;;;;5090199;28;20177;-58
2022/03/18 09:06:06;;;;;;;4.83;3.27;;;;;;;;;;5066526;28;20181;-58
2022/03/18 09:08:32;;;;;;;6.33;3.13;;;;;;;;;;5077284;28;20654;-58
2022/03/18 09:10:58;;;;;;;4.80;3.03;;;;;;;;;;5071483;28;20712;-59
2022/03/18 09:13:25;;;;;;;3.37;2.27;;;;;;;;;;5095879;28;20702;-58
2022/03/18 09:15:51;;;;;;;8.07;2.63;;;;;;;;;;5062536;28;20186;-58
2022/03/18 09:18:18;;;;;;;4.03;2.33;;;;;;;;;;5089890;28;20730;-58
2022/03/18 09:20:44;;;;;;;7.13;2.90;;;;;;;;;;5083369;28;20195;-58
2022/03/18 09:23:11;;;;;;;4.87;2.67;;;;;;;;;;5075045;28;20266;-59
2022/03/18 09:25:37;;;;;;;2.80;2.27;;;;;;;;;;5081214;28;20206;-58
2022/03/18 09:28:03;;;;;;;3.73;2.30;;;;;;;;;;5089251;28;20568;-58
2022/03/18 09:30:29;;;;;;;2.70;2.30;;;;;;;;;;5090130;28;20545;-57
2022/03/18 09:32:56;;;;;;;4.63;2.70;;;;;;;;;;5089550;28;20251;-58
2022/03/18 09:35:23;;;;;;;3.00;2.10;;;;;;;;;;5071410;28;20235;-57
2022/03/18 09:37:49;;;;;;;5.57;2.83;;;;;;;;;;5066311;28;20176;-58
2022/03/18 09:40:15;;;;;;;7.03;3.80;;;;;;;;;;5086276;28;20283;-58
2022/03/18 09:42:55;;;;;;;4.37;2.60;;;;;;;;;;5083853;28;20525;-58
2022/03/18 09:45:21;;;;;;;5.00;2.50;;;;;;;;;;5090095;28;20187;-58
2022/03/18 09:47:48;;;;;;;5.43;2.73;;;;;;;;;;5088663;28;20195;-58
2022/03/18 09:50:14;;;;;;;6.60;2.80;;;;;;;;;;5086347;28;20168;-58
2022/03/18 09:52:42;;;;;;;4.97;2.70;;;;;;;;;;5069417;28;21468;-57
2022/03/18 09:55:08;;;;;;;3.67;2.80;;;;;;;;;;5056522;28;20180;-58
2022/03/18 09:57:34;;;;;;;4.40;2.20;;;;;;;;;;5063243;28;20208;-58
2022/03/18 10:00:00;;;;;;;4.17;3.10;;;;;;;;;;5084312;28;20580;-58
2022/03/18 10:02:28;;;;;;;6.10;2.80;;;;;;;;;;5070790;28;20199;-58
2022/03/18 10:04:59;;;;;;;4.97;2.67;;;;;;;;;;5089009;28;20180;-57
2022/03/18 10:07:26;;;;;;;3.80;2.40;;;;;;;;;;5058447;28;20210;-59
2022/03/18 10:10:11;;;;;;;4.47;2.60;;;;;;;;;;5069288;28;20278;-58
2022/03/18 10:12:40;;;;;;;7.30;2.80;;;;;;;;;;5086776;28;20212;-57
2022/03/18 10:15:14;;;;;;;6.07;2.77;;;;;;;;;;5080950;28;20178;-58
2022/03/18 10:17:45;;;;;;;5.83;3.10;;;;;;;;;;5068766;28;20183;-57
2022/03/18 10:20:29;;;;;;;5.37;2.70;;;;;;;;;;5088241;28;20184;-57
2022/03/18 10:23:14;;;;;;;5.60;2.80;;;;;;;;;;5069187;28;20229;-57
2022/03/18 10:25:51;;;;;;;7.00;3.07;;;;;;;;;;5085103;28;20172;-57
2022/03/18 10:28:36;;;;;;;5.57;3.03;;;;;;;;;;5060209;28;20195;-57
2022/03/18 10:31:23;;;;;;;6.50;2.93;;;;;;;;;;5085087;28;20183;-58
2022/03/18 10:39:22;;;;;;;4.17;2.53;;;;;;;;;;5091187;28;20222;-56
2022/03/18 10:41:49;;;;;;;5.53;2.87;;;;;;;;;;5088569;28;20241;-57
2022/03/18 10:44:18;;;;;;;4.33;2.87;;;;;;;;;;5095525;28;20228;-57
2022/03/18 10:46:44;;;;;;;3.77;2.43;;;;;;;;;;5066805;28;20184;-56
2022/03/18 10:49:11;;;;;;;3.87;2.77;;;;;;;;;;5050808;28;20168;-56
2022/03/18 10:51:38;;;;;;;5.63;3.03;;;;;;;;;;5067099;28;20183;-57
2022/03/18 10:54:04;;;;;;;4.03;3.03;;;;;;;;;;5060465;28;20176;-56
2022/03/18 10:56:50;;;;;;;4.70;3.00;;;;;;;;;;5085348;28;20674;-56
2022/03/18 10:59:17;;;;;;;7.53;3.40;;;;;;;;;;5083820;28;20525;-57
2022/03/18 11:01:47;;;;;;;5.03;3.00;;;;;;;;;;5067321;28;20548;-57
2022/03/18 11:04:17;;;;;;;6.67;2.67;;;;;;;;;;5088244;28;20516;-56
2022/03/18 11:07:29;;;;;;;2.60;2.23;;;;;;;;;;5064062;28;20207;-57
2022/03/18 11:11:06;;;;;;;3.77;2.70;;;;;;;;;;5086296;28;20175;-56
2022/03/18 11:12:15;;;;;;;4.97;2.80;;;;;;;;;;5085760;28;20219;-56
2022/03/18 11:14:42;;;;;;;4.97;2.53;;;;;;;;;;5082514;28;20173;-57
2022/03/18 11:17:08;;;;;;;6.20;3.10;;;;;;;;;;5064348;28;20183;-57
2022/03/18 11:19:35;;;;;;;5.67;3.30;;;;;;;;;;5069807;28;20262;-58
2022/03/18 11:22:03;;;;;;;4.50;3.07;;;;;;;;;;5053803;28;20195;-57
2022/03/18 11:24:32;;;;;;;6.70;2.97;;;;;;;;;;5068283;28;20215;-56
2022/03/18 11:27:02;;;;;;;7.07;2.87;;;;;;;;;;5050788;28;20228;-57
2022/03/18 11:29:31;;;;;;;7.57;3.70;;;;;;;;;;5090321;28;20175;-58
2022/03/18 11:32:12;;;;;;;8.57;2.97;;;;;;;;;;5079036;28;20182;-57
2022/03/18 11:35:08;;;;;;;5.03;3.30;;;;;;;;;;5085587;28;20180;-59
2022/03/18 11:37:35;;;;;;;5.33;2.87;;;;;;;;;;5068676;28;20200;-57
2022/03/18 11:40:35;;;;;;;4.73;2.63;;;;;;;;;;5086397;28;20194;-59
2022/03/18 11:43:21;;;;;;;3.70;2.73;;;;;;;;;;5032486;28;20192;-57
2022/03/18 11:45:48;;;;;;;8.93;3.40;;;;;;;;;;5063704;28;20179;-57
2022/03/18 11:48:33;;;;;;;4.47;3.00;;;;;;;;;;5060607;28;20557;-57
2022/03/18 11:50:59;;;;;;;6.47;3.80;;;;;;;;;;5075904;28;20203;-58
2022/03/18 11:53:44;;;;;;;6.17;3.13;;;;;;;;;;5060631;28;20516;-58
2022/03/18 11:56:13;;;;;;;4.50;3.10;;;;;;;;;;5068855;28;20181;-57
2022/03/18 11:58:40;;;;;;;6.77;3.43;;;;;;;;;;5056648;28;20196;-59
2022/03/18 12:01:06;;;;;;;6.13;3.53;;;;;;;;;;5068222;28;20195;-58
2022/03/18 12:03:36;;;;;;;4.50;4.00;;;;;;;;;;5053774;28;20194;-58
2022/03/18 12:06:03;;;;;;;6.63;3.53;;;;;;;;;;5065227;28;20534;-60
2022/03/18 12:08:48;;;;;;;3.37;2.83;;;;;;;;;;5079308;28;20569;-59
2022/03/18 12:11:28;;;;;;;7.20;3.67;;;;;;;;;;5066458;28;20512;-59
2022/03/18 12:13:54;;;;;;;5.50;3.40;;;;;;;;;;5096028;28;20238;-56
2022/03/18 12:16:22;;;;;;;6.43;3.43;;;;;;;;;;5066253;28;20275;-58
2022/03/18 12:18:48;;;;;;;5.40;3.50;;;;;;;;;;5082869;28;20214;-58
2022/03/18 12:21:15;;;;;;;3.83;3.53;;;;;;;;;;5087910;28;20297;-57
2022/03/18 12:23:41;;;;;;;6.37;3.30;;;;;;;;;;5070404;28;20233;-57
2022/03/18 12:26:07;;;;;;;4.83;3.00;;;;;;;;;;5090186;28;20580;-57
2022/03/18 12:28:46;;;;;;;6.30;3.20;;;;;;;;;;5087142;28;20334;-58
2022/03/18 12:31:16;;;;;;;4.97;2.80;;;;;;;;;;5085315;28;20180;-58
2022/03/18 12:33:42;;;;;;;4.23;3.40;;;;;;;;;;5068625;28;20195;-58
2022/03/18 12:36:09;;;;;;;3.53;3.00;;;;;;;;;;5070864;28;20245;-56
2022/03/18 12:38:35;;;;;;;8.13;3.55;;;;;;;;;;5073702;28;20439;-56
2022/03/18 12:41:02;;;;;;;3.13;2.83;;;;;;;;;;5062202;28;20702;-57
2022/03/18 12:43:31;;;;;;;4.13;3.03;;;;;;;;;;5064461;28;20239;-56
2022/03/18 12:45:58;;;;;;;7.80;3.60;;;;;;;;;;5071999;28;20187;-57
2022/03/18 12:48:24;;;;;;;6.93;3.20;;;;;;;;;;5084237;28;20196;-57
2022/03/18 12:50:52;;;;;;;3.87;2.70;;;;;;;;;;5081944;28;20182;-56
2022/03/18 12:53:24;;;;;;;5.17;3.00;;;;;;;;;;5086634;28;20311;-57
2022/03/18 12:55:54;;;;;;;6.03;3.07;;;;;;;;;;5065813;28;20183;-57
2022/03/18 12:58:22;;;;;;;4.03;2.80;;;;;;;;;;5088734;28;20222;-57
2022/03/18 13:00:54;;;;;;;5.60;3.03;;;;;;;;;;5061175;28;20558;-57
2022/03/18 13:03:25;;;;;;;5.17;3.33;;;;;;;;;;5061850;28;20190;-57
2022/03/18 13:05:52;;;;;;;5.07;2.60;;;;;;;;;;5085463;28;20222;-56
2022/03/18 13:08:21;;;;;;;4.37;2.63;;;;;;;;;;5088619;28;20533;-57
2022/03/18 13:10:56;;;;;;;3.63;2.80;;;;;;;;;;5086581;28;20682;-56
2022/03/18 13:13:22;;;;;;;5.67;2.87;;;;;;;;;;5065171;28;20208;-56
2022/03/18 13:15:59;;;;;;;3.43;2.73;;;;;;;;;;5079133;28;20209;-56
2022/03/18 13:18:26;;;;;;;5.43;2.60;;;;;;;;;;5062475;28;20195;-56
2022/03/18 13:21:00;;;;;;;6.20;2.70;;;;;;;;;;5065682;28;20190;-56
2022/03/18 13:23:26;;;;;;;3.43;2.93;;;;;;;;;;5084018;28;20179;-56
2022/03/18 13:25:53;;;;;;;4.57;3.00;;;;;;;;;;5071897;28;20266;-56
2022/03/18 13:28:19;;;;;;;5.77;2.80;;;;;;;;;;5071620;28;20297;-56
2022/03/18 13:33:42;;;;;;;4.13;3.00;;;;;;;;;;5084844;28;20190;-56
2022/03/18 13:36:24;;;;;;;4.30;3.40;;;;;;;;;;5081715;28;20225;-56
2022/03/18 13:38:51;;;;;;;5.43;3.13;;;;;;;;;;5086968;28;20455;-56
2022/03/18 13:41:18;;;;;;;6.13;2.87;;;;;;;;;;5061594;28;20188;-56
2022/03/18 13:43:45;;;;;;;3.40;2.53;;;;;;;;;;5087277;28;20291;-56
2022/03/18 13:46:12;;;;;;;4.67;2.30;;;;;;;;;;5067177;28;20214;-56
2022/03/18 13:48:38;;;;;;;3.80;2.80;;;;;;;;;;5077766;28;20293;-56
2022/03/18 13:51:08;;;;;;;3.73;3.07;;;;;;;;;;5081607;28;20193;-56
2022/03/18 13:53:35;;;;;;;3.57;2.67;;;;;;;;;;5080252;28;20165;-56
2022/03/18 13:56:15;;;;;;;2.63;2.20;;;;;;;;;;5058084;28;20735;-56
2022/03/18 13:58:42;;;;;;;4.00;3.27;;;;;;;;;;5070926;28;20237;-56
2022/03/18 14:01:12;;;;;;;4.97;3.00;;;;;;;;;;5070569;28;20205;-56
2022/03/18 14:03:39;;;;;;;6.77;2.60;;;;;;;;;;5070140;28;20184;-56
2022/03/18 14:06:06;;;;;;;4.50;2.70;;;;;;;;;;5088845;28;20268;-56
2022/03/18 14:08:41;;;;;;;4.00;2.33;;;;;;;;;;5069936;28;20222;-56
2022/03/18 14:14:21;;;;;;;3.53;2.60;;;;;;;;;;5088718;28;20230;-57
2022/03/18 14:17:16;;;;;;;6.80;3.00;;;;;;;;;;5068741;28;20167;-56
2022/03/18 14:19:47;;;;;;;3.13;2.67;;;;;;;;;;5049588;28;20556;-56
2022/03/18 14:22:29;;;;;;;3.83;2.53;;;;;;;;;;5083206;28;20213;-56
2022/03/18 14:24:55;;;;;;;3.90;2.30;;;;;;;;;;5075754;28;20686;-56
2022/03/18 14:27:22;;;;;;;3.33;2.40;;;;;;;;;;5069860;28;20290;-57
2022/03/18 14:29:48;;;;;;;4.37;3.00;;;;;;;;;;5065228;28;20180;-56
2022/03/18 14:32:14;;;;;;;3.90;2.90;;;;;;;;;;5071327;28;20560;-56
2022/03/18 14:34:41;;;;;;;2.63;2.30;;;;;;;;;;5085802;28;20168;-57
2022/03/18 14:37:08;;;;;;;4.30;2.37;;;;;;;;;;5071551;28;20290;-56
2022/03/18 14:39:34;;;;;;;4.53;2.67;;;;;;;;;;5087098;28;20650;-56
2022/03/18 14:42:00;;;;;;;3.17;2.33;;;;;;;;;;5089266;28;20511;-57
2022/03/18 14:44:27;;;;;;;3.87;2.20;;;;;;;;;;5069599;28;20179;-57
2022/03/18 14:46:53;;;;;;;5.77;2.37;;;;;;;;;;5083543;28;20192;-57
2022/03/18 14:49:19;;;;;;;3.87;2.50;;;;;;;;;;5086228;28;20173;-57
2022/03/18 14:51:46;;;;;;;4.00;3.00;;;;;;;;;;5066962;28;20253;-57
2022/03/18 14:54:15;;;;;;;2.97;2.40;;;;;;;;;;5069390;28;20587;-57
2022/03/18 14:56:41;;;;;;;3.47;2.17;;;;;;;;;;5064520;28;20614;-57
2022/03/18 14:59:08;;;;;;;7.27;3.43;;;;;;;;;;5069646;28;20232;-57
2022/03/18 15:01:34;;;;;;;5.17;3.00;;;;;;;;;;5067213;28;20710;-55
2022/03/18 15:04:05;;;;;;;4.27;3.13;;;;;;;;;;5064056;28;20182;-57
2022/03/18 15:06:31;;;;;;;5.97;3.80;;;;;;;;;;5084873;28;20270;-59
2022/03/18 15:08:57;;;;;;;4.33;3.47;;;;;;;;;;5086395;28;20209;-58
2022/03/18 15:11:24;;;;;;;4.57;3.07;;;;;;;;;;5084099;28;20177;-56
2022/03/18 15:13:50;;;;;;;4.50;2.47;;;;;;;;;;5089718;28;20218;-58